sensor_id;sensor_type;location;lat;lon;timestamp;temperature;humidity
11047;DHT22;5576;50.008;10.596;2022-11-12T00:00:30;5.70;99.90
11047;DHT22;5576;50.008;10.596;2022-11-12T00:03:15;7.10;99.90
11047;DHT22;5576;50.008;10.596;2022-11-12T00:06:01;5.80;99.90
11047;DHT22;5576;50.008;10.596;2022-11-12T00:08:47;5.60;99.90
11047;DHT22;5576;50.008;10.596;2022-11-12T00:11:32;9.10;99.90
11047;DHT22;5576;50.008;10.596;2022-11-12T00:14:19;5.80;99.90
11047;DHT22;5576;50.008;10.596;2022-11-12T00:17:04;5.80;99.90
11047;DHT22;5576;50.008;10.596;2022-11-12T00:19:50;8.30;99.90
11047;DHT22;5576;50.008;10.596;2022-11-12T00:22:36;6.80;99.90
11047;DHT22;5576;50.008;10.596;2022-11-12T00:25:22;5.70;99.90
11047;DHT22;5576;50.008;10.596;2022-11-12T00:28:09;5.80;99.90
11047;DHT22;5576;50.008;10.596;2022-11-12T00:30:55;4.70;99.90
11047;DHT22;5576;50.008;10.596;2022-11-12T00:33:42;6.80;99.90
11047;DHT22;5576;50.008;10.596;2022-11-12T00:36:27;5.50;99.90
11047;DHT22;5576;50.008;10.596;2022-11-12T00:39:13;5.50;99.90
11047;DHT22;5576;50.008;10.596;2022-11-12T00:41:59;6.00;99.90
11047;DHT22;5576;50.008;10.596;2022-11-12T00:44:45;5.50;99.90
11047;DHT22;5576;50.008;10.596;2022-11-12T00:47:30;5.60;99.90
11047;DHT22;5576;50.008;10.596;2022-11-12T00:50:16;5.60;99.90
11047;DHT22;5576;50.008;10.596;2022-11-12T00:53:02;5.60;99.90
11047;DHT22;5576;50.008;10.596;2022-11-12T00:55:47;8.60;99.90
11047;DHT22;5576;50.008;10.596;2022-11-12T00:58:34;5.60;99.90
11047;DHT22;5576;50.008;10.596;2022-11-12T01:01:21;7.80;99.90
11047;DHT22;5576;50.008;10.596;2022-11-12T01:04:07;9.30;99.90
11047;DHT22;5576;50.008;10.596;2022-11-12T01:06:53;5.80;99.90
11047;DHT22;5576;50.008;10.596;2022-11-12T01:09:39;5.80;99.90
11047;DHT22;5576;50.008;10.596;2022-11-12T01:12:24;8.10;99.90
11047;DHT22;5576;50.008;10.596;2022-11-12T01:15:10;5.80;99.90
11047;DHT22;5576;50.008;10.596;2022-11-12T01:17:55;5.70;99.90
11047;DHT22;5576;50.008;10.596;2022-11-12T01:20:41;5.60;99.90
11047;DHT22;5576;50.008;10.596;2022-11-12T01:23:27;5.30;99.90
11047;DHT22;5576;50.008;10.596;2022-11-12T01:26:15;5.30;99.90
11047;DHT22;5576;50.008;10.596;2022-11-12T01:29:01;5.40;99.90
11047;DHT22;5576;50.008;10.596;2022-11-12T01:31:47;5.20;99.90
11047;DHT22;5576;50.008;10.596;2022-11-12T01:34:32;5.10;99.90
11047;DHT22;5576;50.008;10.596;2022-11-12T01:37:18;4.90;99.90
11047;DHT22;5576;50.008;10.596;2022-11-12T01:40:06;7.50;99.90
11047;DHT22;5576;50.008;10.596;2022-11-12T01:42:52;4.80;99.90
11047;DHT22;5576;50.008;10.596;2022-11-12T01:45:42;4.60;99.90
11047;DHT22;5576;50.008;10.596;2022-11-12T01:48:34;4.60;99.90
11047;DHT22;5576;50.008;10.596;2022-11-12T01:51:22;4.50;99.90
11047;DHT22;5576;50.008;10.596;2022-11-12T01:54:12;4.60;99.90
11047;DHT22;5576;50.008;10.596;2022-11-12T01:56:59;4.50;99.90
11047;DHT22;5576;50.008;10.596;2022-11-12T01:59:46;4.40;99.90
11047;DHT22;5576;50.008;10.596;2022-11-12T02:02:34;4.50;99.90
11047;DHT22;5576;50.008;10.596;2022-11-12T02:05:21;4.50;99.90
11047;DHT22;5576;50.008;10.596;2022-11-12T02:08:07;4.70;99.90
11047;DHT22;5576;50.008;10.596;2022-11-12T02:10:55;4.80;99.90
11047;DHT22;5576;50.008;10.596;2022-11-12T02:13:42;4.70;99.90
11047;DHT22;5576;50.008;10.596;2022-11-12T02:16:49;4.70;99.90
11047;DHT22;5576;50.008;10.596;2022-11-12T02:19:36;4.80;99.90
11047;DHT22;5576;50.008;10.596;2022-11-12T02:22:22;4.60;99.90
11047;DHT22;5576;50.008;10.596;2022-11-12T02:25:11;4.80;99.90
11047;DHT22;5576;50.008;10.596;2022-11-12T02:27:58;4.80;99.90
11047;DHT22;5576;50.008;10.596;2022-11-12T02:30:47;4.70;99.90
11047;DHT22;5576;50.008;10.596;2022-11-12T02:33:33;4.80;99.90
11047;DHT22;5576;50.008;10.596;2022-11-12T02:36:18;4.90;99.90
11047;DHT22;5576;50.008;10.596;2022-11-12T02:39:05;5.00;99.90
11047;DHT22;5576;50.008;10.596;2022-11-12T02:41:50;5.10;99.90
11047;DHT22;5576;50.008;10.596;2022-11-12T02:44:36;5.10;99.90
11047;DHT22;5576;50.008;10.596;2022-11-12T02:47:21;5.10;99.90
11047;DHT22;5576;50.008;10.596;2022-11-12T02:50:07;5.00;99.90
11047;DHT22;5576;50.008;10.596;2022-11-12T02:52:53;4.80;99.90
11047;DHT22;5576;50.008;10.596;2022-11-12T02:55:39;4.80;99.90
11047;DHT22;5576;50.008;10.596;2022-11-12T02:58:24;4.80;99.90
11047;DHT22;5576;50.008;10.596;2022-11-12T03:01:10;7.20;99.90
11047;DHT22;5576;50.008;10.596;2022-11-12T03:03:56;4.80;99.90
11047;DHT22;5576;50.008;10.596;2022-11-12T03:06:41;4.70;99.90
11047;DHT22;5576;50.008;10.596;2022-11-12T03:09:27;4.70;99.90
11047;DHT22;5576;50.008;10.596;2022-11-12T03:12:13;4.70;99.90
11047;DHT22;5576;50.008;10.596;2022-11-12T03:14:59;7.90;99.90
11047;DHT22;5576;50.008;10.596;2022-11-12T03:17:44;4.50;99.90
11047;DHT22;5576;50.008;10.596;2022-11-12T03:20:30;4.50;99.90
11047;DHT22;5576;50.008;10.596;2022-11-12T03:23:16;4.50;99.90
11047;DHT22;5576;50.008;10.596;2022-11-12T03:26:02;4.60;99.90
11047;DHT22;5576;50.008;10.596;2022-11-12T03:28:50;2.40;99.90
11047;DHT22;5576;50.008;10.596;2022-11-12T03:31:36;7.90;99.90
11047;DHT22;5576;50.008;10.596;2022-11-12T03:34:21;4.50;99.90
11047;DHT22;5576;50.008;10.596;2022-11-12T03:37:07;1.80;99.90
11047;DHT22;5576;50.008;10.596;2022-11-12T03:39:53;4.60;99.90
11047;DHT22;5576;50.008;10.596;2022-11-12T03:42:44;4.60;99.90
11047;DHT22;5576;50.008;10.596;2022-11-12T03:45:30;4.70;99.90
11047;DHT22;5576;50.008;10.596;2022-11-12T03:48:16;4.80;99.90
11047;DHT22;5576;50.008;10.596;2022-11-12T03:51:02;8.10;99.90
11047;DHT22;5576;50.008;10.596;2022-11-12T03:53:47;4.90;99.90
11047;DHT22;5576;50.008;10.596;2022-11-12T03:56:33;3.30;99.90
11047;DHT22;5576;50.008;10.596;2022-11-12T03:59:19;4.70;99.90
11047;DHT22;5576;50.008;10.596;2022-11-12T04:02:04;5.50;99.90
11047;DHT22;5576;50.008;10.596;2022-11-12T04:04:50;4.80;99.90
11047;DHT22;5576;50.008;10.596;2022-11-12T04:08:01;1.90;99.90
11047;DHT22;5576;50.008;10.596;2022-11-12T04:11:10;4.70;99.90
11047;DHT22;5576;50.008;10.596;2022-11-12T04:13:57;4.50;99.90
11047;DHT22;5576;50.008;10.596;2022-11-12T04:16:43;4.40;99.90
11047;DHT22;5576;50.008;10.596;2022-11-12T04:19:48;4.50;99.90
11047;DHT22;5576;50.008;10.596;2022-11-12T04:22:54;4.40;99.90
11047;DHT22;5576;50.008;10.596;2022-11-12T04:25:40;4.30;99.90
11047;DHT22;5576;50.008;10.596;2022-11-12T04:28:45;4.30;99.90
11047;DHT22;5576;50.008;10.596;2022-11-12T04:31:51;8.10;99.90
11047;DHT22;5576;50.008;10.596;2022-11-12T04:34:36;4.40;99.90
11047;DHT22;5576;50.008;10.596;2022-11-12T04:37:24;4.10;99.90
11047;DHT22;5576;50.008;10.596;2022-11-12T04:43:18;4.40;99.90
11047;DHT22;5576;50.008;10.596;2022-11-12T04:46:24;4.50;99.90
11047;DHT22;5576;50.008;10.596;2022-11-12T04:49:09;4.50;99.90
11047;DHT22;5576;50.008;10.596;2022-11-12T04:51:55;4.40;99.90
11047;DHT22;5576;50.008;10.596;2022-11-12T04:54:57;4.30;99.90
11047;DHT22;5576;50.008;10.596;2022-11-12T04:57:43;4.30;99.90
11047;DHT22;5576;50.008;10.596;2022-11-12T05:00:28;4.80;99.90
11047;DHT22;5576;50.008;10.596;2022-11-12T05:03:14;4.60;99.90
11047;DHT22;5576;50.008;10.596;2022-11-12T05:06:01;4.40;99.90
11047;DHT22;5576;50.008;10.596;2022-11-12T05:08:47;4.40;99.90
11047;DHT22;5576;50.008;10.596;2022-11-12T05:11:33;7.20;99.90
11047;DHT22;5576;50.008;10.596;2022-11-12T05:14:18;4.10;99.90
11047;DHT22;5576;50.008;10.596;2022-11-12T05:17:04;4.20;99.90
11047;DHT22;5576;50.008;10.596;2022-11-12T05:19:50;7.40;99.90
11047;DHT22;5576;50.008;10.596;2022-11-12T05:22:36;4.20;99.90
11047;DHT22;5576;50.008;10.596;2022-11-12T05:25:21;4.30;99.90
11047;DHT22;5576;50.008;10.596;2022-11-12T05:28:07;4.40;99.90
11047;DHT22;5576;50.008;10.596;2022-11-12T05:30:53;4.20;99.90
11047;DHT22;5576;50.008;10.596;2022-11-12T05:33:38;4.20;99.90
11047;DHT22;5576;50.008;10.596;2022-11-12T05:36:24;4.00;99.90
11047;DHT22;5576;50.008;10.596;2022-11-12T05:39:10;4.20;99.90
11047;DHT22;5576;50.008;10.596;2022-11-12T05:41:55;4.50;99.90
11047;DHT22;5576;50.008;10.596;2022-11-12T05:44:41;4.60;99.90
11047;DHT22;5576;50.008;10.596;2022-11-12T05:47:27;4.60;99.90
11047;DHT22;5576;50.008;10.596;2022-11-12T05:50:12;4.70;99.90
11047;DHT22;5576;50.008;10.596;2022-11-12T05:52:58;1.40;99.90
11047;DHT22;5576;50.008;10.596;2022-11-12T05:55:44;4.70;99.90
11047;DHT22;5576;50.008;10.596;2022-11-12T05:58:30;4.50;99.90
11047;DHT22;5576;50.008;10.596;2022-11-12T06:01:16;7.70;99.90
11047;DHT22;5576;50.008;10.596;2022-11-12T06:04:02;7.80;99.90
11047;DHT22;5576;50.008;10.596;2022-11-12T06:06:48;4.20;99.90
11047;DHT22;5576;50.008;10.596;2022-11-12T06:09:34;4.20;99.90
11047;DHT22;5576;50.008;10.596;2022-11-12T06:12:19;4.00;99.90
11047;DHT22;5576;50.008;10.596;2022-11-12T06:15:05;3.80;99.90
11047;DHT22;5576;50.008;10.596;2022-11-12T06:17:52;3.90;99.90
11047;DHT22;5576;50.008;10.596;2022-11-12T06:20:38;4.10;99.90
11047;DHT22;5576;50.008;10.596;2022-11-12T06:23:23;4.20;99.90
11047;DHT22;5576;50.008;10.596;2022-11-12T06:26:09;4.50;99.90
11047;DHT22;5576;50.008;10.596;2022-11-12T06:28:55;4.50;99.90
11047;DHT22;5576;50.008;10.596;2022-11-12T06:31:41;4.00;99.90
11047;DHT22;5576;50.008;10.596;2022-11-12T06:34:26;3.90;99.90
11047;DHT22;5576;50.008;10.596;2022-11-12T06:37:12;3.70;99.90
11047;DHT22;5576;50.008;10.596;2022-11-12T06:40:00;3.60;99.90
11047;DHT22;5576;50.008;10.596;2022-11-12T06:42:56;4.00;99.90
11047;DHT22;5576;50.008;10.596;2022-11-12T06:45:42;3.70;99.90
11047;DHT22;5576;50.008;10.596;2022-11-12T06:48:28;3.70;99.90
11047;DHT22;5576;50.008;10.596;2022-11-12T06:51:19;4.00;99.90
11047;DHT22;5576;50.008;10.596;2022-11-12T06:54:05;4.00;99.90
11047;DHT22;5576;50.008;10.596;2022-11-12T06:56:51;4.10;99.90
11047;DHT22;5576;50.008;10.596;2022-11-12T06:59:36;1.80;99.90
11047;DHT22;5576;50.008;10.596;2022-11-12T07:02:22;4.10;99.90
11047;DHT22;5576;50.008;10.596;2022-11-12T07:05:08;4.10;99.90
11047;DHT22;5576;50.008;10.596;2022-11-12T07:07:53;5.20;99.90
11047;DHT22;5576;50.008;10.596;2022-11-12T07:10:39;3.80;99.90
11047;DHT22;5576;50.008;10.596;2022-11-12T07:13:25;6.80;99.90
11047;DHT22;5576;50.008;10.596;2022-11-12T07:16:12;4.20;99.90
11047;DHT22;5576;50.008;10.596;2022-11-12T07:18:58;4.30;99.90
11047;DHT22;5576;50.008;10.596;2022-11-12T07:21:44;3.90;99.90
11047;DHT22;5576;50.008;10.596;2022-11-12T07:24:29;0.50;99.90
11047;DHT22;5576;50.008;10.596;2022-11-12T07:27:15;4.10;99.90
11047;DHT22;5576;50.008;10.596;2022-11-12T07:30:00;3.20;99.90
11047;DHT22;5576;50.008;10.596;2022-11-12T07:32:46;3.80;99.90
11047;DHT22;5576;50.008;10.596;2022-11-12T07:35:31;4.00;99.90
11047;DHT22;5576;50.008;10.596;2022-11-12T07:38:17;4.30;99.90
11047;DHT22;5576;50.008;10.596;2022-11-12T07:41:07;1.40;99.90
11047;DHT22;5576;50.008;10.596;2022-11-12T07:43:53;4.00;99.90
11047;DHT22;5576;50.008;10.596;2022-11-12T07:46:39;3.80;99.90
11047;DHT22;5576;50.008;10.596;2022-11-12T07:49:24;3.70;99.90
11047;DHT22;5576;50.008;10.596;2022-11-12T07:52:10;3.70;99.90
11047;DHT22;5576;50.008;10.596;2022-11-12T07:57:42;6.60;99.90
11047;DHT22;5576;50.008;10.596;2022-11-12T08:00:27;3.90;99.90
11047;DHT22;5576;50.008;10.596;2022-11-12T08:03:13;3.90;99.90
11047;DHT22;5576;50.008;10.596;2022-11-12T08:05:59;3.90;99.90
11047;DHT22;5576;50.008;10.596;2022-11-12T08:08:45;4.00;99.90
11047;DHT22;5576;50.008;10.596;2022-11-12T08:11:32;4.00;99.90
11047;DHT22;5576;50.008;10.596;2022-11-12T08:14:17;4.00;99.90
11047;DHT22;5576;50.008;10.596;2022-11-12T08:17:03;4.10;99.90
11047;DHT22;5576;50.008;10.596;2022-11-12T08:19:49;4.10;99.90
11047;DHT22;5576;50.008;10.596;2022-11-12T08:22:40;7.60;99.90
11047;DHT22;5576;50.008;10.596;2022-11-12T08:25:25;1.80;99.90
11047;DHT22;5576;50.008;10.596;2022-11-12T08:28:11;4.30;99.90
11047;DHT22;5576;50.008;10.596;2022-11-12T08:31:02;4.40;99.90
11047;DHT22;5576;50.008;10.596;2022-11-12T08:33:48;4.60;99.90
11047;DHT22;5576;50.008;10.596;2022-11-12T08:36:34;4.90;99.90
11047;DHT22;5576;50.008;10.596;2022-11-12T08:39:20;5.10;99.90
11047;DHT22;5576;50.008;10.596;2022-11-12T08:42:05;5.20;99.90
11047;DHT22;5576;50.008;10.596;2022-11-12T08:44:51;5.20;99.90
11047;DHT22;5576;50.008;10.596;2022-11-12T08:47:35;5.40;99.90
11047;DHT22;5576;50.008;10.596;2022-11-12T08:50:20;5.60;99.90
11047;DHT22;5576;50.008;10.596;2022-11-12T08:53:12;5.70;99.90
11047;DHT22;5576;50.008;10.596;2022-11-12T08:55:58;5.80;99.90
11047;DHT22;5576;50.008;10.596;2022-11-12T08:58:44;5.50;99.90
11047;DHT22;5576;50.008;10.596;2022-11-12T09:01:30;5.30;99.90
11047;DHT22;5576;50.008;10.596;2022-11-12T09:04:15;5.30;99.90
11047;DHT22;5576;50.008;10.596;2022-11-12T09:07:01;5.30;99.90
11047;DHT22;5576;50.008;10.596;2022-11-12T09:09:47;4.50;99.90
11047;DHT22;5576;50.008;10.596;2022-11-12T09:12:32;5.50;99.90
11047;DHT22;5576;50.008;10.596;2022-11-12T09:15:19;2.80;99.90
11047;DHT22;5576;50.008;10.596;2022-11-12T09:18:07;5.60;99.90
11047;DHT22;5576;50.008;10.596;2022-11-12T09:20:59;5.80;99.90
11047;DHT22;5576;50.008;10.596;2022-11-12T09:23:45;5.90;99.90
11047;DHT22;5576;50.008;10.596;2022-11-12T09:26:32;6.10;99.90
11047;DHT22;5576;50.008;10.596;2022-11-12T09:29:17;6.10;99.90
11047;DHT22;5576;50.008;10.596;2022-11-12T09:32:03;6.10;99.90
11047;DHT22;5576;50.008;10.596;2022-11-12T09:34:49;6.10;99.90
11047;DHT22;5576;50.008;10.596;2022-11-12T09:37:37;6.30;99.90
11047;DHT22;5576;50.008;10.596;2022-11-12T09:40:31;6.30;99.90
11047;DHT22;5576;50.008;10.596;2022-11-12T09:49:30;6.50;99.90
11047;DHT22;5576;50.008;10.596;2022-11-12T09:52:22;6.60;99.90
11047;DHT22;5576;50.008;10.596;2022-11-12T09:55:31;6.60;99.90
11047;DHT22;5576;50.008;10.596;2022-11-12T09:58:18;6.70;99.90
11047;DHT22;5576;50.008;10.596;2022-11-12T10:01:12;6.70;99.90
11047;DHT22;5576;50.008;10.596;2022-11-12T10:07:02;7.00;99.90
11047;DHT22;5576;50.008;10.596;2022-11-12T10:10:01;6.90;99.90
11047;DHT22;5576;50.008;10.596;2022-11-12T10:13:08;6.20;99.90
11047;DHT22;5576;50.008;10.596;2022-11-12T10:16:12;7.10;99.90
11047;DHT22;5576;50.008;10.596;2022-11-12T10:25:24;5.50;99.90
11047;DHT22;5576;50.008;10.596;2022-11-12T10:31:13;7.40;99.90
11047;DHT22;5576;50.008;10.596;2022-11-12T10:34:20;7.50;99.90
11047;DHT22;5576;50.008;10.596;2022-11-12T10:37:19;7.50;99.90
11047;DHT22;5576;50.008;10.596;2022-11-12T10:46:21;7.60;99.90
11047;DHT22;5576;50.008;10.596;2022-11-12T10:49:22;7.70;99.90
11047;DHT22;5576;50.008;10.596;2022-11-12T10:52:23;7.80;99.90
11047;DHT22;5576;50.008;10.596;2022-11-12T10:55:19;7.90;99.90
11047;DHT22;5576;50.008;10.596;2022-11-12T10:58:13;8.00;99.90
11047;DHT22;5576;50.008;10.596;2022-11-12T11:01:11;8.10;99.90
11047;DHT22;5576;50.008;10.596;2022-11-12T11:03:57;8.00;99.90
11047;DHT22;5576;50.008;10.596;2022-11-12T11:06:43;8.20;99.90
11047;DHT22;5576;50.008;10.596;2022-11-12T11:09:29;8.30;99.90
11047;DHT22;5576;50.008;10.596;2022-11-12T11:12:28;8.60;99.90
11047;DHT22;5576;50.008;10.596;2022-11-12T11:15:19;12.20;99.90
11047;DHT22;5576;50.008;10.596;2022-11-12T11:18:10;8.90;99.90
11047;DHT22;5576;50.008;10.596;2022-11-12T11:30:51;9.60;99.90
11047;DHT22;5576;50.008;10.596;2022-11-12T11:33:49;9.80;99.90
11047;DHT22;5576;50.008;10.596;2022-11-12T11:36:42;8.70;99.90
11047;DHT22;5576;50.008;10.596;2022-11-12T11:39:45;9.90;99.90
11047;DHT22;5576;50.008;10.596;2022-11-12T11:54:52;10.40;99.90
11047;DHT22;5576;50.008;10.596;2022-11-12T12:01:12;10.40;99.90
11047;DHT22;5576;50.008;10.596;2022-11-12T12:04:23;10.40;99.90
11047;DHT22;5576;50.008;10.596;2022-11-12T12:10:28;10.30;99.90
11047;DHT22;5576;50.008;10.596;2022-11-12T12:16:31;10.30;99.90
11047;DHT22;5576;50.008;10.596;2022-11-12T12:19:44;10.10;99.90
11047;DHT22;5576;50.008;10.596;2022-11-12T12:22:40;10.10;99.90
11047;DHT22;5576;50.008;10.596;2022-11-12T12:25:32;7.30;99.90
11047;DHT22;5576;50.008;10.596;2022-11-12T12:28:41;10.00;99.90
11047;DHT22;5576;50.008;10.596;2022-11-12T12:31:34;9.90;99.90
11047;DHT22;5576;50.008;10.596;2022-11-12T12:34:25;9.90;99.90
11047;DHT22;5576;50.008;10.596;2022-11-12T12:37:22;9.90;99.90
11047;DHT22;5576;50.008;10.596;2022-11-12T12:40:15;12.50;99.90
11047;DHT22;5576;50.008;10.596;2022-11-12T12:46:20;9.90;99.90
11047;DHT22;5576;50.008;10.596;2022-11-12T12:49:13;9.90;99.90
11047;DHT22;5576;50.008;10.596;2022-11-12T12:52:00;10.40;99.90
11047;DHT22;5576;50.008;10.596;2022-11-12T12:57:37;9.90;99.90
11047;DHT22;5576;50.008;10.596;2022-11-12T13:06:51;9.90;99.90
11047;DHT22;5576;50.008;10.596;2022-11-12T13:09:37;9.90;99.90
11047;DHT22;5576;50.008;10.596;2022-11-12T13:15:53;9.90;99.90
11047;DHT22;5576;50.008;10.596;2022-11-12T13:21:28;9.80;99.90
11047;DHT22;5576;50.008;10.596;2022-11-12T13:24:13;9.90;99.90
11047;DHT22;5576;50.008;10.596;2022-11-12T13:27:00;9.90;99.90
11047;DHT22;5576;50.008;10.596;2022-11-12T13:29:46;6.40;99.90
11047;DHT22;5576;50.008;10.596;2022-11-12T13:35:28;9.80;99.90
11047;DHT22;5576;50.008;10.596;2022-11-12T13:38:15;9.80;99.90
11047;DHT22;5576;50.008;10.596;2022-11-12T13:41:10;11.00;99.90
11047;DHT22;5576;50.008;10.596;2022-11-12T13:44:04;9.80;99.90
11047;DHT22;5576;50.008;10.596;2022-11-12T13:46:51;9.70;99.90
11047;DHT22;5576;50.008;10.596;2022-11-12T13:49:41;9.70;99.90
11047;DHT22;5576;50.008;10.596;2022-11-12T13:52:28;9.70;99.90
11047;DHT22;5576;50.008;10.596;2022-11-12T13:55:16;9.70;99.90
11047;DHT22;5576;50.008;10.596;2022-11-12T13:58:02;7.70;99.90
11047;DHT22;5576;50.008;10.596;2022-11-12T14:00:54;9.70;99.90
11047;DHT22;5576;50.008;10.596;2022-11-12T14:03:46;12.70;99.90
11047;DHT22;5576;50.008;10.596;2022-11-12T14:06:35;9.80;99.90
11047;DHT22;5576;50.008;10.596;2022-11-12T14:12:34;12.70;99.90
11047;DHT22;5576;50.008;10.596;2022-11-12T14:15:53;12.80;99.90
11047;DHT22;5576;50.008;10.596;2022-11-12T14:21:33;11.60;99.90
11047;DHT22;5576;50.008;10.596;2022-11-12T14:24:19;9.60;99.90
11047;DHT22;5576;50.008;10.596;2022-11-12T14:30:18;9.50;99.90
11047;DHT22;5576;50.008;10.596;2022-11-12T14:33:09;9.40;99.90
11047;DHT22;5576;50.008;10.596;2022-11-12T14:36:05;9.40;99.90
11047;DHT22;5576;50.008;10.596;2022-11-12T14:38:55;9.40;99.90
11047;DHT22;5576;50.008;10.596;2022-11-12T14:41:42;9.40;99.90
11047;DHT22;5576;50.008;10.596;2022-11-12T14:44:34;9.30;99.90
11047;DHT22;5576;50.008;10.596;2022-11-12T14:47:20;9.30;99.90
11047;DHT22;5576;50.008;10.596;2022-11-12T14:50:26;9.30;99.90
11047;DHT22;5576;50.008;10.596;2022-11-12T14:53:18;9.20;99.90
11047;DHT22;5576;50.008;10.596;2022-11-12T14:56:10;9.10;99.90
11047;DHT22;5576;50.008;10.596;2022-11-12T14:58:57;9.10;99.90
11047;DHT22;5576;50.008;10.596;2022-11-12T15:04:53;9.10;99.90
11047;DHT22;5576;50.008;10.596;2022-11-12T15:10:47;9.20;99.90
11047;DHT22;5576;50.008;10.596;2022-11-12T15:13:37;9.00;99.90
11047;DHT22;5576;50.008;10.596;2022-11-12T15:16:30;9.00;99.90
11047;DHT22;5576;50.008;10.596;2022-11-12T15:22:04;5.50;99.90
11047;DHT22;5576;50.008;10.596;2022-11-12T15:24:50;8.90;99.90
11047;DHT22;5576;50.008;10.596;2022-11-12T15:27:40;8.80;99.90
11047;DHT22;5576;50.008;10.596;2022-11-12T15:30:29;8.80;99.90
11047;DHT22;5576;50.008;10.596;2022-11-12T15:33:20;8.80;99.90
11047;DHT22;5576;50.008;10.596;2022-11-12T15:36:23;7.10;99.90
11047;DHT22;5576;50.008;10.596;2022-11-12T15:39:12;8.70;99.90
11047;DHT22;5576;50.008;10.596;2022-11-12T15:42:03;8.70;99.90
11047;DHT22;5576;50.008;10.596;2022-11-12T15:44:56;8.60;99.90
11047;DHT22;5576;50.008;10.596;2022-11-12T15:47:42;8.70;99.90
11047;DHT22;5576;50.008;10.596;2022-11-12T15:50:30;8.60;99.90
11047;DHT22;5576;50.008;10.596;2022-11-12T15:53:16;8.50;99.90
11047;DHT22;5576;50.008;10.596;2022-11-12T15:56:02;8.50;99.90
11047;DHT22;5576;50.008;10.596;2022-11-12T15:58:48;8.40;99.90
11047;DHT22;5576;50.008;10.596;2022-11-12T16:01:34;8.40;99.90
11047;DHT22;5576;50.008;10.596;2022-11-12T16:04:20;8.40;99.90
11047;DHT22;5576;50.008;10.596;2022-11-12T16:07:07;10.10;99.90
11047;DHT22;5576;50.008;10.596;2022-11-12T16:09:53;8.10;99.90
11047;DHT22;5576;50.008;10.596;2022-11-12T16:12:40;8.00;99.90
11047;DHT22;5576;50.008;10.596;2022-11-12T16:15:26;8.20;99.90
11047;DHT22;5576;50.008;10.596;2022-11-12T16:18:12;7.90;99.90
11047;DHT22;5576;50.008;10.596;2022-11-12T16:20:57;7.80;99.90
11047;DHT22;5576;50.008;10.596;2022-11-12T16:23:43;7.80;99.90
11047;DHT22;5576;50.008;10.596;2022-11-12T16:26:29;7.70;99.90
11047;DHT22;5576;50.008;10.596;2022-11-12T16:29:16;7.70;99.90
11047;DHT22;5576;50.008;10.596;2022-11-12T16:32:02;10.90;99.90
11047;DHT22;5576;50.008;10.596;2022-11-12T16:34:48;7.60;99.90
11047;DHT22;5576;50.008;10.596;2022-11-12T16:37:34;7.50;99.90
11047;DHT22;5576;50.008;10.596;2022-11-12T16:40:26;7.60;99.90
11047;DHT22;5576;50.008;10.596;2022-11-12T16:43:12;10.90;99.90
11047;DHT22;5576;50.008;10.596;2022-11-12T16:45:58;7.40;99.90
11047;DHT22;5576;50.008;10.596;2022-11-12T16:48:44;9.60;99.90
11047;DHT22;5576;50.008;10.596;2022-11-12T16:51:29;10.10;99.90
11047;DHT22;5576;50.008;10.596;2022-11-12T16:54:15;7.30;99.90
11047;DHT22;5576;50.008;10.596;2022-11-12T16:57:00;7.30;99.90
11047;DHT22;5576;50.008;10.596;2022-11-12T16:59:46;7.30;99.90
11047;DHT22;5576;50.008;10.596;2022-11-12T17:02:32;10.10;99.90
11047;DHT22;5576;50.008;10.596;2022-11-12T17:05:21;7.00;99.90
11047;DHT22;5576;50.008;10.596;2022-11-12T17:08:08;7.00;99.90
11047;DHT22;5576;50.008;10.596;2022-11-12T17:10:55;9.00;99.90
11047;DHT22;5576;50.008;10.596;2022-11-12T17:13:41;6.90;99.90
11047;DHT22;5576;50.008;10.596;2022-11-12T17:16:27;6.90;99.90
11047;DHT22;5576;50.008;10.596;2022-11-12T17:19:13;6.80;99.90
11047;DHT22;5576;50.008;10.596;2022-11-12T17:21:58;6.60;99.90
11047;DHT22;5576;50.008;10.596;2022-11-12T17:24:44;6.60;99.90
11047;DHT22;5576;50.008;10.596;2022-11-12T17:27:30;3.20;99.90
11047;DHT22;5576;50.008;10.596;2022-11-12T17:30:16;8.30;99.90
11047;DHT22;5576;50.008;10.596;2022-11-12T17:33:02;6.50;99.90
11047;DHT22;5576;50.008;10.596;2022-11-12T17:35:47;6.40;99.90
11047;DHT22;5576;50.008;10.596;2022-11-12T17:38:33;6.40;99.90
11047;DHT22;5576;50.008;10.596;2022-11-12T17:41:19;6.50;99.90
11047;DHT22;5576;50.008;10.596;2022-11-12T17:44:05;6.60;99.90
11047;DHT22;5576;50.008;10.596;2022-11-12T17:46:51;9.50;99.90
11047;DHT22;5576;50.008;10.596;2022-11-12T17:49:37;5.30;99.90
11047;DHT22;5576;50.008;10.596;2022-11-12T17:52:23;6.40;99.90
11047;DHT22;5576;50.008;10.596;2022-11-12T17:55:08;7.30;99.90
11047;DHT22;5576;50.008;10.596;2022-11-12T17:57:54;6.30;99.90
11047;DHT22;5576;50.008;10.596;2022-11-12T18:00:40;8.20;99.90
11047;DHT22;5576;50.008;10.596;2022-11-12T18:03:25;6.20;99.90
11047;DHT22;5576;50.008;10.596;2022-11-12T18:06:13;6.20;99.90
11047;DHT22;5576;50.008;10.596;2022-11-12T18:09:03;3.90;99.90
11047;DHT22;5576;50.008;10.596;2022-11-12T18:11:51;6.10;99.90
11047;DHT22;5576;50.008;10.596;2022-11-12T18:14:40;6.10;99.90
11047;DHT22;5576;50.008;10.596;2022-11-12T18:17:26;6.40;99.90
11047;DHT22;5576;50.008;10.596;2022-11-12T18:20:12;6.80;99.90
11047;DHT22;5576;50.008;10.596;2022-11-12T18:22:57;6.80;99.90
11047;DHT22;5576;50.008;10.596;2022-11-12T18:25:43;6.90;99.90
11047;DHT22;5576;50.008;10.596;2022-11-12T18:28:29;6.80;99.90
11047;DHT22;5576;50.008;10.596;2022-11-12T18:31:15;6.30;99.90
11047;DHT22;5576;50.008;10.596;2022-11-12T18:34:01;6.30;99.90
11047;DHT22;5576;50.008;10.596;2022-11-12T18:36:46;6.10;99.90
11047;DHT22;5576;50.008;10.596;2022-11-12T18:39:32;6.10;99.90
11047;DHT22;5576;50.008;10.596;2022-11-12T18:42:18;6.40;99.90
11047;DHT22;5576;50.008;10.596;2022-11-12T18:45:04;6.40;99.90
11047;DHT22;5576;50.008;10.596;2022-11-12T18:47:50;6.30;99.90
11047;DHT22;5576;50.008;10.596;2022-11-12T18:50:35;7.80;99.90
11047;DHT22;5576;50.008;10.596;2022-11-12T18:53:21;6.20;99.90
11047;DHT22;5576;50.008;10.596;2022-11-12T18:56:10;6.20;99.90
11047;DHT22;5576;50.008;10.596;2022-11-12T18:58:56;6.40;99.90
11047;DHT22;5576;50.008;10.596;2022-11-12T19:01:41;10.10;99.90
11047;DHT22;5576;50.008;10.596;2022-11-12T19:04:36;6.30;99.90
11047;DHT22;5576;50.008;10.596;2022-11-12T19:07:21;6.10;99.90
11047;DHT22;5576;50.008;10.596;2022-11-12T19:10:07;9.20;99.90
11047;DHT22;5576;50.008;10.596;2022-11-12T19:13:00;6.30;99.90
11047;DHT22;5576;50.008;10.596;2022-11-12T19:15:48;6.20;99.90
11047;DHT22;5576;50.008;10.596;2022-11-12T19:18:34;6.00;99.90
11047;DHT22;5576;50.008;10.596;2022-11-12T19:21:21;6.30;99.90
11047;DHT22;5576;50.008;10.596;2022-11-12T19:24:06;6.30;99.90
11047;DHT22;5576;50.008;10.596;2022-11-12T19:27:07;7.80;99.90
11047;DHT22;5576;50.008;10.596;2022-11-12T19:29:51;9.80;99.90
11047;DHT22;5576;50.008;10.596;2022-11-12T19:32:53;8.60;99.90
11047;DHT22;5576;50.008;10.596;2022-11-12T19:35:39;5.70;99.90
11047;DHT22;5576;50.008;10.596;2022-11-12T19:38:25;9.10;99.90
11047;DHT22;5576;50.008;10.596;2022-11-12T19:41:14;5.30;99.90